Twin Bridges, CA (95721)

2:35 PM PDT on September 02, 2014 (GMT -0700)
Lower Gardner Mountain | Change Station
CLOSE
Current Station
Personal Weather Station
Location: South Lake Tahoe, CA
Elevation: 6316 ft
Nearby Weather Stations

Elev 6316 ft 38.92 °N, 120.02 °W | Updated 5 minutes ago

Clear
Clear
80.6 °F
Feels Like 79 °F
N
3.2
Wind Variable Wind from NW

Today
High -- | Low -- °F
--% Chance of Precip.
Yesterday
High -- | Low -- °F
Precip. -- in
6:29 AM 7:28 PM
First Quarter, 55% visible
Pressure 29.89 in
Visibility 10.0 miles
Clouds Clear
Heat Index 79 °F
Dew Point 37 °F
Humidity 21%
Rainfall 0.00 in
Snow Depth 0 in
UV 10 out of 12
Pollen 8.20 out of 12
Air Quality Not available.
Flu Activity Not available.
METAR KTVL 022053Z AUTO VRB05G19KT 10SM CLR 28/00 A3008 RMK AO2 PK WND 19029/2019 SLP122 T02780000 58009

More Conditions Fewer Conditions

Pressure 29.89 in
Visibility 10.0 miles
Clouds Clear
Heat Index 79 °F
Dew Point 37 °F
Humidity 21%
Rainfall 0.00 in
Snow Depth 0 in
UV 10 out of 12
Pollen 8.20 out of 12
Air Quality Not available.
Flu Activity Not available.
METAR KTVL 022053Z AUTO VRB05G19KT 10SM CLR 28/00 A3008 RMK AO2 PK WND 19029/2019 SLP122 T02780000 58009

More Conditions Fewer Conditions

10-Day Weather Forecast

Almanac

Astronomy

Sep. 02, 2014 Rise Set
Actual Time 6:29 AM PDT 7:28 PM PDT
Civil Twilight 6:02 AM PDT 7:55 PM PDT
Nautical Twilight 5:30 AM PDT 8:28 PM PDT
Astronomical Twilight 4:56 AM PDT 9:01 PM PDT
Moon 2:15 PM PDT No Moon Set
Length of Visible Light 13h 53m
Length of Day
12h 58m
Tomorrow will be 2m 25s shorter.
First Quarter, 55% of the Moon is Illuminated
Today
First Quarter
Sep 8
Full
Sep 15
Last Quarter
Sep 24
New
Oct 1
First Quarter

Today's Extremes

State Highs State Lows

Community

WunderPhotos

Upload Photos

1,749,776 photos uploaded!

Nearby

Snow Depth

Station Depth Elevation
Fallen Leaf 0 in 6300 ft
CSS Lab 1 in 6900 ft
Summit Meadow 0 in 9122 ft
Leavitt Meadows 0 in 7200 ft
Adin Mountain 0 in 6200 ft

Earthquake Activity

City Distance Mag. Time & Date
Gilroy, California 155 miles 3.5 9:10 AM PDT
2014-09-01
Minimum magnitude displayed is 2.5.

Coastal Water Temperatures

Place Temperature
No Stations Reporting

Nearby Weather Stations